Peyrelevade (19) - E

Date : 09/04/2012

Place Nom Licence Catégorie Club Temps CN à J-60 Points Différence Nouveau CN
1 DROIN Solène 17925 D16 4201RA 0:23:46 4634 5219 +585 4712
2 BODY Mathilde 10184 D16 7305RA 0:24:04 5413 5154 -259 5096
3 DERMINE Jean 1848 H60 3801RA 0:24:27 5965 5073 -892 6155
4 HABERKORN Chloé 10396 D16 2105BO 0:24:38 5413 5035 -378 5365
5 BORNARD Julie 9402 D16 7305RA 0:25:51 4337 4798 +461 4310
6 GIRARD Lucille 19689 D16 3705CE 0:26:02 4776 4764 -12 4884
7 BEAUVIR Maëlle 12709 D16 3502BR 0:26:26 4090 4692 +602 4617
8 PETER-JAN Lucile 19276 D16 3705CE 0:26:58 4565 4599 +34 4605
9 GUILLEMET Océane 22819 D16 3318AQ 0:27:34 3212 4499 +1287 4556
10 RIVOLLIER Isaline 22451 D16 4201RA 0:28:43 3898 4319 +421 4300
11 MAGDINIER Gilles 1635 H60 1307PR 0:29:22 4806 4224 -582 4904
12 BERGER-CAPBERN Valérie 6068 D50 3105MP 0:29:58 5119 4139 -980 4908
13 DARGENTON Bernard 24684 H60 3705CE 0:30:23 3185 4082 +897 3832
14 ANTOINE Alain 1270 H65 2605RA 0:30:46 4960 4031 -929 5011
15 COMBET Annie 813 D50 4203RA 0:32:20 4353 3836 -517 4370
16 DUQUENNE Audrey 23885 D16 5907NO 0:32:35 3266 3807 +541 3671
17 FOL Loreline 16393 D16 3105MP 0:32:47 3325 3783 +458 3503
18 VALETTE Marion 10430 D16 6913RA 0:33:32 3633 3699 +66 3678
19 CHARDOT Marion 22315 D16 7807IF 0:34:49 3921 3562 -359 3916
20 DELENNE Camilla 13800 D16 1307PR 0:35:11 3808 3525 -283 3741
21 DERMINE Isabelle 1847 D50 3801RA 0:35:15 4942 3519 -1423 4801
22 MOUSSU Sarah 22301 D16 3318AQ 0:35:57 2527 3450 +923 3259
23 LUTHRINGER Coline 10091 D16 8809LO 0:36:14 4352 3423 -929 4161
24 ROULLEAUX Julie 11559 D16 9105IF 0:37:10 5407 3337 -2070 4933
25 MARTINEZ Catherine 7833 D50 4012AQ 0:38:31 3347 3220 -127 3530
26 PICAZO Marie 16555 D16 8405PR 0:38:54 4259 3188 -1071 3913
27 PINZELLI Tamara 23551 D16 1905LI 0:39:00 2776 3180 +404 3227
28 FORGET Sandrine 18745 D40 4708AQ 0:40:28 2761 3065 +304 3138
29 LEMERCIER Victoire 11454 D16 5407LO 0:40:39 3643 3051 -592 3539
30 MOREAU Merlin 19584 H14 2605RA 0:41:17 2681 3004 +323 2639
31 JACOMINO Mireille 277 D50 3801RA 0:41:33 4049 2985 -1064 3879
32 BLANCHARD Grégorine 11530 D21 3705CE 0:42:33 2654 2915 +261 2979
33 TOUZAIN ROULLEAUX Isabelle 8920 D50 9105IF 0:44:05 3900 2814 -1086 3771
34 BONORA Marine 11542 D16 6906RA 0:44:38 3743 2779 -964 3571
35 VILLEDIEU Martine 13752 D55 6913RA 0:46:48 3873 2650 -1223 3642
36 MASSIN Margot 22860 D16 5907NO 0:47:59 2653 2585 -68 2987
37 FEUGEAS Clothilde 22198 D16 1905LI 0:48:33 1595 2555 +960 2153
38 ROUX Marie Françoise 25236 D50 4201RA 0:57:02 2175 2886
39 POULAIN Odile 1948 D50 5908NO 0:57:15 3149 2166 -983 3121
40 DECHAVANNE Denise 3462 D55 6911RA 1:03:36 2276 1950 -326 2276
41 PEYCLIT Christine 19825 D45 1905LI 1:22:16 1814 1508 -306 2024
42 GOURVIL Elisabeth 18473 D45 3705CE 1:40:40 1428 1232 -196 1236
DRAULT J-Raymond 4234 H70 8702LI pm 2701 0 2735
DECHAVANNE Jean-Francois 3461 H60 6911RA pm 6101 0 6101